createdAt,value
2022-08-12T00:01:26.951Z,2.87
2022-08-12T00:04:34.828Z,2.83
2022-08-12T00:07:20.517Z,3.07
2022-08-12T00:10:06.925Z,3.20
2022-08-12T00:12:54.515Z,3.17
2022-08-12T00:15:40.845Z,2.70
2022-08-12T00:18:26.307Z,2.70
2022-08-12T00:21:13.944Z,2.60
2022-08-12T00:24:01.221Z,2.40
2022-08-12T00:26:49.539Z,2.40
2022-08-12T00:29:37.813Z,2.50
2022-08-12T00:32:35.414Z,2.97
2022-08-12T00:35:26.023Z,2.77
2022-08-12T00:38:23.337Z,2.63
2022-08-12T00:41:09.329Z,2.83
2022-08-12T00:43:39.158Z,2.33
2022-08-12T00:46:24.443Z,3.20
2022-08-12T00:48:52.223Z,3.47
2022-08-12T00:51:20.379Z,2.60
2022-08-12T00:53:47.707Z,2.80
2022-08-12T00:56:16.025Z,2.90
2022-08-12T00:58:52.515Z,2.80
2022-08-12T01:01:20.587Z,2.70
2022-08-12T01:04:16.395Z,2.70
2022-08-12T01:07:05.418Z,3.00
2022-08-12T01:09:50.678Z,3.27
2022-08-12T01:12:18.818Z,3.10
2022-08-12T01:14:48.397Z,3.00
2022-08-12T01:17:15.333Z,2.20
2022-08-12T01:19:42.388Z,2.70
2022-08-12T01:22:26.619Z,2.87
2022-08-12T01:25:00.087Z,3.03
2022-08-12T01:27:33.295Z,2.90
2022-08-12T01:30:10.291Z,2.47
2022-08-12T01:32:41.947Z,2.67
2022-08-12T01:35:18.534Z,2.77
2022-08-12T01:38:00.808Z,2.57
2022-08-12T01:40:37.907Z,2.50
2022-08-12T01:43:14.071Z,2.80
2022-08-12T01:46:07.721Z,2.30
2022-08-12T01:49:03.098Z,2.60
2022-08-12T01:52:21.099Z,2.70
2022-08-12T01:54:42.025Z,2.30
2022-08-12T01:57:58.167Z,2.37
2022-08-12T02:00:15.375Z,2.87
2022-08-12T02:03:19.988Z,2.70
2022-08-12T02:06:13.045Z,2.93
2022-08-12T02:09:08.881Z,2.70
2022-08-12T02:11:51.417Z,2.90
2022-08-12T02:14:20.709Z,2.87
2022-08-12T02:16:51.056Z,2.53
2022-08-12T02:20:00.466Z,2.90
2022-08-12T02:22:39.823Z,3.20
2022-08-12T02:25:44.020Z,3.00
2022-08-12T02:28:11.738Z,2.87
2022-08-12T02:30:42.703Z,2.57
2022-08-12T02:33:12.200Z,3.70
2022-08-12T02:35:43.748Z,2.40
2022-08-12T02:38:12.619Z,2.80
2022-08-12T02:40:43.052Z,2.97
2022-08-12T02:43:56.074Z,3.20
2022-08-12T02:46:37.744Z,3.20
2022-08-12T02:49:11.848Z,3.37
2022-08-12T02:51:42.601Z,3.53
2022-08-12T02:54:13.002Z,3.37
2022-08-12T02:56:50.588Z,3.13
2022-08-12T02:59:27.144Z,3.10
2022-08-12T03:02:04.379Z,3.10
2022-08-12T03:04:56.718Z,3.17
2022-08-12T03:07:45.905Z,3.10
2022-08-12T03:10:34.681Z,3.43
2022-08-12T03:13:07.554Z,2.97
2022-08-12T03:15:37.667Z,4.00
2022-08-12T03:18:35.065Z,3.20
2022-08-12T03:21:02.767Z,3.80
2022-08-12T03:23:32.307Z,3.00
2022-08-12T03:26:03.535Z,3.47
2022-08-12T03:28:54.118Z,3.23
2022-08-12T03:31:33.698Z,3.70
2022-08-12T03:34:07.337Z,3.90
2022-08-12T03:36:42.347Z,4.03
2022-08-12T03:39:17.147Z,4.03
2022-08-12T03:42:06.139Z,3.50
2022-08-12T03:45:29.792Z,3.40
2022-08-12T03:48:29.864Z,3.50
2022-08-12T03:51:17.749Z,3.37
2022-08-12T03:54:05.048Z,4.20
2022-08-12T03:56:54.733Z,3.67
2022-08-12T03:59:40.064Z,4.17
2022-08-12T04:02:08.140Z,3.60
2022-08-12T04:04:35.732Z,4.00
2022-08-12T04:07:11.591Z,4.80
2022-08-12T04:09:42.424Z,3.43
2022-08-12T04:12:32.254Z,3.93
2022-08-12T04:15:01.081Z,3.50
2022-08-12T04:17:31.592Z,3.80
2022-08-12T04:19:59.575Z,3.73
2022-08-12T04:22:29.868Z,4.20
2022-08-12T04:25:01.613Z,3.80
2022-08-12T04:27:32.608Z,4.10
2022-08-12T04:30:16.339Z,4.20
2022-08-12T04:32:51.029Z,4.20
2022-08-12T04:35:19.063Z,3.50
2022-08-12T04:37:58.363Z,4.40
2022-08-12T04:40:31.813Z,3.83
2022-08-12T04:43:05.506Z,3.53
2022-08-12T04:45:34.591Z,4.30
2022-08-12T04:48:04.109Z,4.60
2022-08-12T04:50:34.959Z,4.27
2022-08-12T04:53:09.159Z,3.90
2022-08-12T04:55:39.016Z,3.90
2022-08-12T04:58:08.853Z,4.67
2022-08-12T05:00:42.044Z,4.30
2022-08-12T05:03:09.170Z,4.17
2022-08-12T05:05:37.955Z,4.00
2022-08-12T05:08:11.113Z,3.87
2022-08-12T05:10:40.239Z,4.10
2022-08-12T05:13:19.244Z,3.70
2022-08-12T05:16:02.547Z,3.80
2022-08-12T05:18:39.769Z,4.80
2022-08-12T05:21:08.084Z,4.23
2022-08-12T05:23:38.546Z,5.07
2022-08-12T05:26:08.018Z,3.63
2022-08-12T05:28:35.332Z,4.37
2022-08-12T05:31:02.673Z,4.03
2022-08-12T05:33:40.171Z,5.03
2022-08-12T05:36:13.951Z,4.63
2022-08-12T05:38:58.857Z,4.93
2022-08-12T05:41:33.129Z,5.63
2022-08-12T05:44:06.100Z,7.93
2022-08-12T05:46:36.649Z,9.10
2022-08-12T05:49:05.694Z,10.13
2022-08-12T05:51:40.739Z,14.67
2022-08-12T05:54:16.505Z,17.83
2022-08-12T05:56:45.683Z,14.20
2022-08-12T05:59:17.158Z,10.83
2022-08-12T06:02:10.591Z,8.37
2022-08-12T06:04:36.453Z,8.80
2022-08-12T06:07:59.486Z,7.60
2022-08-12T06:09:53.899Z,7.23
2022-08-12T06:12:23.393Z,5.50
2022-08-12T06:14:55.075Z,5.77
2022-08-12T06:17:22.817Z,4.67
2022-08-12T06:20:27.181Z,4.33
2022-08-12T06:22:39.738Z,5.53
2022-08-12T06:25:10.295Z,5.73
2022-08-12T06:28:06.407Z,4.87
2022-08-12T06:30:39.633Z,5.27
2022-08-12T06:33:22.307Z,5.27
2022-08-12T06:35:53.919Z,5.40
2022-08-12T06:38:30.552Z,5.40
2022-08-12T06:41:19.403Z,6.00
2022-08-12T06:44:07.160Z,5.50
2022-08-12T06:46:38.736Z,4.13
2022-08-12T06:49:13.197Z,5.00
2022-08-12T06:51:40.357Z,4.50
2022-08-12T06:54:14.173Z,4.47
2022-08-12T06:58:05.938Z,3.77
2022-08-12T06:59:47.428Z,3.70
2022-08-12T07:02:21.058Z,4.57
2022-08-12T07:04:50.457Z,4.33
2022-08-12T07:07:18.430Z,3.90
2022-08-12T07:10:01.421Z,4.00
2022-08-12T07:12:35.961Z,4.03
2022-08-12T07:15:05.290Z,3.80
2022-08-12T07:17:38.005Z,3.27
2022-08-12T07:20:35.805Z,3.80
2022-08-12T07:23:02.067Z,3.40
2022-08-12T07:25:40.699Z,3.60
2022-08-12T07:28:17.226Z,3.30
2022-08-12T07:30:49.138Z,3.93
2022-08-12T07:33:17.787Z,4.73
2022-08-12T07:35:47.702Z,3.70
2022-08-12T07:38:37.186Z,3.53
2022-08-12T07:41:21.068Z,3.57
2022-08-12T07:43:48.860Z,3.47
2022-08-12T07:46:21.758Z,3.30
2022-08-12T07:48:58.490Z,3.30
2022-08-12T07:51:26.667Z,3.10
2022-08-12T07:54:01.017Z,3.70
2022-08-12T07:56:31.710Z,3.87
2022-08-12T07:59:01.024Z,3.73
2022-08-12T08:01:28.679Z,3.90
2022-08-12T08:04:18.685Z,3.33
2022-08-12T08:06:49.197Z,3.53
2022-08-12T08:09:21.168Z,3.97
2022-08-12T08:12:06.817Z,3.53
2022-08-12T08:14:36.916Z,3.10
2022-08-12T08:17:06.489Z,3.37
2022-08-12T08:19:48.542Z,2.70
2022-08-12T08:22:40.999Z,3.13
2022-08-12T08:25:20.438Z,3.13
2022-08-12T08:28:07.221Z,3.03
2022-08-12T08:30:42.964Z,3.37
2022-08-12T08:33:24.838Z,3.10
2022-08-12T08:36:04.557Z,2.13
2022-08-12T08:38:35.437Z,2.90
2022-08-12T08:42:19.186Z,2.67
2022-08-12T08:44:12.116Z,2.73
2022-08-12T08:46:45.014Z,2.57
2022-08-12T08:49:16.725Z,2.40
2022-08-12T08:51:47.838Z,2.53
2022-08-12T08:54:15.497Z,2.80
2022-08-12T08:56:50.274Z,2.20
2022-08-12T08:59:21.986Z,2.50
2022-08-12T09:01:49.108Z,2.80
2022-08-12T09:05:08.115Z,2.47
2022-08-12T09:07:16.792Z,2.33
2022-08-12T09:10:02.061Z,2.53
2022-08-12T09:15:43.823Z,2.23
2022-08-12T09:21:14.040Z,2.23
2022-08-12T09:23:59.706Z,2.23
2022-08-12T09:26:32.099Z,2.27
2022-08-12T09:29:12.404Z,2.13
2022-08-12T09:32:04.382Z,2.30
2022-08-12T09:34:36.036Z,2.53
2022-08-12T09:37:19.539Z,2.70
2022-08-12T09:40:03.107Z,3.10
2022-08-12T09:43:17.559Z,2.57
2022-08-12T09:46:07.104Z,3.23
2022-08-12T09:48:36.733Z,2.57
2022-08-12T09:51:10.764Z,2.30
2022-08-12T09:53:45.621Z,2.20
2022-08-12T09:56:57.082Z,2.43
2022-08-12T09:59:08.055Z,2.00
2022-08-12T10:02:41.839Z,2.30
2022-08-12T10:04:23.665Z,2.60
2022-08-12T10:06:55.432Z,2.40
2022-08-12T10:09:28.821Z,2.77
2022-08-12T10:12:43.050Z,2.17
2022-08-12T10:16:01.619Z,2.20
2022-08-12T10:18:07.916Z,2.20
2022-08-12T10:20:35.029Z,1.77
2022-08-12T10:23:01.995Z,2.50
2022-08-12T10:26:35.281Z,2.30
2022-08-12T10:29:02.797Z,2.70
2022-08-12T10:32:15.654Z,2.23
2022-08-12T10:34:26.629Z,1.90
2022-08-12T10:37:10.464Z,2.10
2022-08-12T10:40:07.052Z,2.07
2022-08-12T10:43:01.421Z,2.13
2022-08-12T10:45:30.381Z,2.00
2022-08-12T10:48:20.515Z,1.80
2022-08-12T10:51:01.917Z,2.60
2022-08-12T10:53:46.040Z,2.40
2022-08-12T10:56:18.095Z,2.30
2022-08-12T10:58:48.365Z,1.83
2022-08-12T11:01:49.139Z,2.20
2022-08-12T11:04:34.333Z,2.40
2022-08-12T11:08:35.193Z,2.10
2022-08-12T11:10:00.305Z,2.03
2022-08-12T11:12:56.421Z,2.57
2022-08-12T11:15:33.187Z,2.67
2022-08-12T11:18:11.658Z,2.47
2022-08-12T11:20:39.678Z,1.83
2022-08-12T11:23:25.972Z,2.30
2022-08-12T11:25:58.080Z,1.87
2022-08-12T11:28:33.467Z,2.40
2022-08-12T11:31:03.097Z,2.30
2022-08-12T11:34:04.320Z,1.73
2022-08-12T11:36:22.023Z,2.47
2022-08-12T11:38:52.280Z,2.00
2022-08-12T11:41:28.188Z,2.20
2022-08-12T11:44:35.837Z,1.93
2022-08-12T11:46:51.383Z,1.87
2022-08-12T11:49:31.319Z,1.90
2022-08-12T11:52:04.197Z,2.03
2022-08-12T11:54:50.866Z,1.77
2022-08-12T11:58:07.517Z,1.80
2022-08-12T12:02:04.516Z,1.73
2022-08-12T12:02:57.866Z,1.73
2022-08-12T12:05:28.549Z,1.80
2022-08-12T12:08:41.400Z,1.60
2022-08-12T12:10:57.277Z,1.67
2022-08-12T12:14:08.918Z,1.80
2022-08-12T12:16:15.952Z,1.90
2022-08-12T12:18:42.825Z,2.13
2022-08-12T12:21:09.717Z,1.80
2022-08-12T12:23:39.631Z,1.90
2022-08-12T12:26:34.982Z,2.00
2022-08-12T12:29:07.846Z,1.70
2022-08-12T12:32:06.908Z,1.40
2022-08-12T12:34:41.603Z,1.90
2022-08-12T12:38:04.740Z,1.83
2022-08-12T12:40:19.494Z,1.70
2022-08-12T12:42:55.665Z,1.83
2022-08-12T12:45:27.678Z,1.70
2022-08-12T12:48:04.357Z,1.50
2022-08-12T12:50:45.522Z,1.70
2022-08-12T12:54:08.311Z,2.10
2022-08-12T12:56:40.378Z,2.00
2022-08-12T12:59:56.723Z,1.73
2022-08-12T13:02:02.022Z,1.60
2022-08-12T13:04:38.014Z,1.60
2022-08-12T13:07:06.762Z,1.53
2022-08-12T13:09:37.002Z,1.70
2022-08-12T13:12:09.078Z,1.63
2022-08-12T13:14:39.678Z,1.90
2022-08-12T13:17:14.782Z,1.60
2022-08-12T13:19:49.981Z,1.90
2022-08-12T13:22:21.015Z,1.93
2022-08-12T13:24:57.018Z,2.07
2022-08-12T13:27:35.194Z,1.90
2022-08-12T13:30:31.680Z,1.90
2022-08-12T13:32:58.800Z,1.93
2022-08-12T13:35:33.299Z,2.37
2022-08-12T13:38:35.248Z,1.90
2022-08-12T13:41:03.798Z,2.20
2022-08-12T13:43:40.493Z,2.23
2022-08-12T13:46:12.109Z,2.07
2022-08-12T13:48:45.062Z,2.40
2022-08-12T13:51:14.076Z,2.10
2022-08-12T13:53:57.655Z,2.00
2022-08-12T13:56:34.882Z,1.70
2022-08-12T13:59:08.778Z,1.87
2022-08-12T14:01:40.509Z,2.00
2022-08-12T14:04:11.895Z,1.93
2022-08-12T14:06:44.893Z,1.60
2022-08-12T14:09:17.998Z,1.60
2022-08-12T14:11:58.877Z,1.93
2022-08-12T14:14:31.756Z,1.80
2022-08-12T14:17:09.852Z,1.70
2022-08-12T14:19:45.158Z,1.83
2022-08-12T14:22:26.020Z,1.50
2022-08-12T14:24:53.413Z,1.90
2022-08-12T14:28:02.731Z,1.50
2022-08-12T14:30:15.604Z,1.77
2022-08-12T14:32:45.308Z,2.33
2022-08-12T14:35:14.849Z,1.40
2022-08-12T14:37:55.280Z,2.30
2022-08-12T14:40:28.672Z,1.73
2022-08-12T14:42:59.177Z,1.80
2022-08-12T14:45:44.772Z,1.60
2022-08-12T14:48:19.618Z,1.80
2022-08-12T14:51:02.777Z,2.10
2022-08-12T14:59:57.420Z,2.07
2022-08-12T15:02:25.889Z,2.13
2022-08-12T15:05:03.528Z,2.33
2022-08-12T15:07:48.803Z,2.33
2022-08-12T15:10:31.795Z,1.93
2022-08-12T15:13:07.329Z,2.23
2022-08-12T15:15:45.426Z,1.90
2022-08-12T15:18:21.575Z,1.90
2022-08-12T15:20:54.580Z,1.90
2022-08-12T15:23:23.715Z,2.10
2022-08-12T15:26:02.949Z,2.17
2022-08-12T15:28:35.375Z,1.77
2022-08-12T15:31:27.526Z,2.30
2022-08-12T15:33:59.679Z,2.20
2022-08-12T15:36:54.143Z,1.97
2022-08-12T15:39:16.542Z,2.00
2022-08-12T15:41:50.760Z,2.00
2022-08-12T15:44:41.767Z,2.20
2022-08-12T15:47:09.741Z,1.97
2022-08-12T15:49:43.095Z,1.93
2022-08-12T15:52:30.216Z,1.97
2022-08-12T15:55:05.932Z,2.10
2022-08-12T15:57:40.051Z,1.90
2022-08-12T16:00:22.461Z,1.80
2022-08-12T16:03:05.794Z,1.70
2022-08-12T16:06:19.065Z,1.83
2022-08-12T16:08:35.758Z,2.00
2022-08-12T16:11:07.049Z,1.80
2022-08-12T16:13:44.325Z,1.63
2022-08-12T16:16:12.501Z,2.03
2022-08-12T16:18:56.450Z,1.67
2022-08-12T16:21:50.526Z,1.57
2022-08-12T16:24:15.575Z,1.90
2022-08-12T16:26:45.305Z,1.60
2022-08-12T16:29:53.530Z,2.00
2022-08-12T16:32:23.098Z,1.60
2022-08-12T16:34:57.496Z,24.10
2022-08-12T16:37:32.839Z,2.00
2022-08-12T16:40:13.504Z,1.50
2022-08-12T16:42:53.377Z,1.80
2022-08-12T16:45:24.486Z,2.00
2022-08-12T16:48:34.714Z,1.70
2022-08-12T16:51:05.987Z,1.50
2022-08-12T16:53:44.605Z,1.90
2022-08-12T16:56:17.369Z,1.70
2022-08-12T16:58:44.807Z,2.40
2022-08-12T17:01:16.366Z,2.33
2022-08-12T17:04:04.475Z,1.80
2022-08-12T17:06:43.114Z,2.00
2022-08-12T17:09:18.038Z,1.80
2022-08-12T17:11:50.241Z,2.53
2022-08-12T17:14:23.144Z,1.93
2022-08-12T17:16:54.851Z,1.80
2022-08-12T17:20:29.000Z,1.63
2022-08-12T17:22:16.825Z,2.20
2022-08-12T17:24:55.347Z,1.60
2022-08-12T17:27:25.490Z,2.53
2022-08-12T17:30:02.034Z,2.87
2022-08-12T17:32:31.395Z,1.43
2022-08-12T17:35:18.672Z,2.00
2022-08-12T17:37:48.474Z,2.03
2022-08-12T17:40:34.868Z,2.20
2022-08-12T17:43:55.734Z,1.90
2022-08-12T17:45:59.014Z,2.00
2022-08-12T17:48:34.781Z,2.10
2022-08-12T17:51:15.717Z,1.70
2022-08-12T17:54:06.116Z,2.33
2022-08-12T17:56:36.892Z,2.30
2022-08-12T17:59:04.454Z,2.53
2022-08-12T18:01:35.937Z,2.67
2022-08-12T18:04:21.495Z,2.60
2022-08-12T18:06:55.850Z,1.60
2022-08-12T18:09:32.338Z,2.30
2022-08-12T18:12:24.502Z,1.60
2022-08-12T18:15:08.834Z,1.97
2022-08-12T18:17:46.883Z,2.03
2022-08-12T18:20:18.157Z,1.80
2022-08-12T18:22:55.662Z,2.17
2022-08-12T18:26:13.987Z,2.33
2022-08-12T18:28:43.018Z,2.17
2022-08-12T18:31:18.772Z,1.60
2022-08-12T18:33:48.089Z,3.13
2022-08-12T18:36:22.271Z,3.00
2022-08-12T18:38:56.060Z,3.30
2022-08-12T18:41:35.981Z,3.03
2022-08-12T18:44:12.319Z,2.87
2022-08-12T18:46:53.995Z,2.90
2022-08-12T18:49:39.726Z,2.63
2022-08-12T18:52:11.713Z,3.70
2022-08-12T18:54:49.528Z,3.10
2022-08-12T18:58:07.655Z,2.97
2022-08-12T19:00:22.529Z,2.67
2022-08-12T19:02:54.738Z,2.30
2022-08-12T19:05:52.980Z,2.70
2022-08-12T19:08:13.305Z,3.97
2022-08-12T19:10:50.267Z,3.27
2022-08-12T19:13:39.237Z,3.60
2022-08-12T19:16:12.341Z,3.80
2022-08-12T19:18:45.819Z,3.50
2022-08-12T19:21:20.102Z,4.07
2022-08-12T19:24:08.309Z,3.30
2022-08-12T19:26:36.417Z,3.60
2022-08-12T19:29:08.402Z,3.83
2022-08-12T19:31:55.517Z,3.23
2022-08-12T19:37:38.789Z,3.07
2022-08-12T19:40:32.916Z,3.27
2022-08-12T19:43:19.613Z,3.80
2022-08-12T19:45:56.737Z,4.40
2022-08-12T19:48:30.725Z,7.00
2022-08-12T19:51:09.378Z,5.57
2022-08-12T19:53:57.957Z,6.10
2022-08-12T19:56:29.474Z,6.60
2022-08-12T19:59:18.649Z,7.60
2022-08-12T20:02:02.625Z,5.10
2022-08-12T20:04:38.906Z,4.23
2022-08-12T20:07:23.156Z,4.90
2022-08-12T20:09:54.231Z,4.60
2022-08-12T20:12:31.897Z,4.23
2022-08-12T20:15:03.254Z,6.20
2022-08-12T20:17:35.967Z,7.17
2022-08-12T20:20:19.015Z,5.67
2022-08-12T20:22:48.291Z,5.90
2022-08-12T20:25:18.225Z,5.70
2022-08-12T20:28:04.826Z,4.90
2022-08-12T20:30:52.333Z,5.73
2022-08-12T20:33:50.944Z,4.63
2022-08-12T20:36:41.095Z,3.57
2022-08-12T20:39:34.129Z,6.13
2022-08-12T20:41:58.618Z,4.00
2022-08-12T20:44:32.284Z,4.87
2022-08-12T20:47:18.502Z,6.77
2022-08-12T20:49:54.799Z,8.40
2022-08-12T20:52:22.553Z,8.23
2022-08-12T20:54:52.078Z,7.47
2022-08-12T20:57:24.754Z,7.83
2022-08-12T21:00:16.112Z,7.20
2022-08-12T21:02:47.130Z,7.70
2022-08-12T21:06:09.388Z,8.93
2022-08-12T21:08:27.283Z,8.60
2022-08-12T21:10:59.206Z,8.57
2022-08-12T21:13:29.471Z,7.93
2022-08-12T21:16:09.788Z,7.10
2022-08-12T21:18:38.030Z,6.67
2022-08-12T21:21:24.018Z,5.60
2022-08-12T21:23:56.364Z,6.40
2022-08-12T21:26:27.603Z,8.17
2022-08-12T21:29:01.327Z,6.67
2022-08-12T21:32:47.300Z,6.17
2022-08-12T21:34:25.980Z,6.70
2022-08-12T21:36:56.780Z,7.10
2022-08-12T21:39:35.325Z,8.53
2022-08-12T21:42:09.850Z,9.03
2022-08-12T21:45:46.022Z,5.60
2022-08-12T21:47:26.021Z,5.80
2022-08-12T21:50:02.935Z,4.93
2022-08-12T21:52:41.005Z,6.80
2022-08-12T21:55:17.891Z,9.57
2022-08-12T21:57:50.786Z,8.47
2022-08-12T22:00:32.552Z,7.53
2022-08-12T22:04:01.239Z,7.10
2022-08-12T22:06:31.285Z,5.07
2022-08-12T22:09:17.232Z,5.47
2022-08-12T22:11:58.719Z,4.93
2022-08-12T22:14:28.849Z,5.47
2022-08-12T22:16:57.914Z,5.07
2022-08-12T22:19:27.301Z,4.97
2022-08-12T22:22:04.135Z,5.37
2022-08-12T22:24:34.231Z,5.23
2022-08-12T22:27:17.960Z,5.10
2022-08-12T22:30:17.753Z,5.30
2022-08-12T22:32:50.740Z,5.60
2022-08-12T22:35:55.616Z,4.90
2022-08-12T22:38:33.452Z,4.93
2022-08-12T22:41:26.175Z,5.30
2022-08-12T22:44:11.540Z,5.80
2022-08-12T22:46:38.618Z,6.13
2022-08-12T22:49:10.009Z,5.80
2022-08-12T22:51:57.473Z,6.03
2022-08-12T22:54:36.168Z,6.87
2022-08-12T22:57:12.383Z,6.60
2022-08-12T22:59:55.104Z,6.37
2022-08-12T23:02:30.772Z,5.67
2022-08-12T23:04:58.562Z,5.67
2022-08-12T23:07:27.941Z,4.87
2022-08-12T23:10:08.582Z,5.33
2022-08-12T23:13:00.337Z,6.20
2022-08-12T23:15:35.135Z,5.90
2022-08-12T23:18:02.672Z,6.70
2022-08-12T23:20:36.587Z,6.50
2022-08-12T23:23:09.451Z,6.37
2022-08-12T23:25:54.412Z,6.40
2022-08-12T23:28:42.336Z,5.63
2022-08-12T23:31:12.004Z,5.77
2022-08-12T23:33:59.988Z,6.93
2022-08-12T23:36:31.724Z,8.10
2022-08-12T23:40:06.477Z,7.53
2022-08-12T23:42:17.880Z,5.53
2022-08-12T23:44:52.259Z,7.50
2022-08-12T23:47:21.694Z,5.10
2022-08-12T23:49:58.577Z,6.13
2022-08-12T23:52:33.930Z,6.13
2022-08-12T23:55:25.037Z,5.80
2022-08-12T23:58:20.990Z,5.77
